createdAt,value
2017-05-16T00:01:38.211Z,4.90
2017-05-16T00:04:06.423Z,3.80
2017-05-16T00:06:35.380Z,4.44
2017-05-16T00:09:03.596Z,3.40
2017-05-16T00:11:31.811Z,3.22
2017-05-16T00:14:00.018Z,3.62
2017-05-16T00:16:28.982Z,3.44
2017-05-16T00:18:57.195Z,3.60
2017-05-16T00:21:26.144Z,3.04
2017-05-16T00:23:54.359Z,3.08
2017-05-16T00:26:23.307Z,3.92
2017-05-16T00:28:51.514Z,3.58
2017-05-16T00:31:19.727Z,3.50
2017-05-16T00:33:47.950Z,3.44
2017-05-16T00:36:16.155Z,3.66
2017-05-16T00:38:44.399Z,3.42
2017-05-16T00:41:12.604Z,3.62
2017-05-16T00:43:40.824Z,4.48
2017-05-16T00:46:09.040Z,4.56
2017-05-16T00:48:37.987Z,4.10
2017-05-16T00:51:06.204Z,3.80
2017-05-16T00:53:35.156Z,4.04
2017-05-16T00:56:03.368Z,4.20
2017-05-16T00:58:32.321Z,4.44
2017-05-16T01:01:00.536Z,4.30
2017-05-16T01:03:28.744Z,4.62
2017-05-16T01:05:56.964Z,4.50
2017-05-16T01:08:25.171Z,4.88
2017-05-16T01:10:53.388Z,4.88
2017-05-16T01:13:21.600Z,5.00
2017-05-16T01:15:50.550Z,4.78
2017-05-16T01:18:18.763Z,5.14
2017-05-16T01:20:46.967Z,4.80
2017-05-16T01:23:15.188Z,4.54
2017-05-16T01:25:43.395Z,5.32
2017-05-16T01:28:12.352Z,4.82
2017-05-16T01:30:40.559Z,5.30
2017-05-16T01:33:09.515Z,4.28
2017-05-16T01:35:37.720Z,4.98
2017-05-16T01:38:06.672Z,5.06
2017-05-16T01:40:34.867Z,4.94
2017-05-16T01:43:03.835Z,4.94
2017-05-16T01:45:32.043Z,4.52
2017-05-16T01:48:00.275Z,4.96
2017-05-16T01:50:28.467Z,4.72
2017-05-16T01:52:56.667Z,4.46
2017-05-16T01:55:25.624Z,4.52
2017-05-16T01:57:53.836Z,4.50
2017-05-16T02:00:22.036Z,4.70
2017-05-16T02:05:44.348Z,4.70
2017-05-16T02:08:12.555Z,4.90
2017-05-16T02:10:40.767Z,4.86
2017-05-16T02:13:08.971Z,5.00
2017-05-16T02:15:37.179Z,4.80
2017-05-16T02:18:05.388Z,4.94
2017-05-16T02:20:33.628Z,6.02
2017-05-16T02:23:01.827Z,5.50
2017-05-16T02:25:30.036Z,5.46
2017-05-16T02:27:58.263Z,5.52
2017-05-16T02:30:26.471Z,5.02
2017-05-16T02:32:55.428Z,5.26
2017-05-16T02:35:23.636Z,5.56
2017-05-16T02:37:51.859Z,5.56
2017-05-16T02:40:20.067Z,5.44
2017-05-16T02:42:48.274Z,5.58
2017-05-16T02:45:16.501Z,5.80
2017-05-16T02:47:44.711Z,5.54
2017-05-16T02:50:13.651Z,5.28
2017-05-16T02:52:41.870Z,5.50
2017-05-16T02:55:10.811Z,5.30
2017-05-16T02:57:39.028Z,6.14
2017-05-16T03:00:07.983Z,6.70
2017-05-16T03:02:36.191Z,6.20
2017-05-16T03:05:05.143Z,6.10
2017-05-16T03:07:33.370Z,5.60
2017-05-16T03:10:01.595Z,5.60
2017-05-16T03:12:29.803Z,6.78
2017-05-16T03:14:58.762Z,5.90
2017-05-16T03:17:26.967Z,6.04
2017-05-16T03:19:55.943Z,5.96
2017-05-16T03:22:24.916Z,6.20
2017-05-16T03:24:53.123Z,5.62
2017-05-16T03:27:22.079Z,5.56
2017-05-16T03:29:50.293Z,5.92
2017-05-16T03:32:19.247Z,6.20
2017-05-16T03:34:47.450Z,6.08
2017-05-16T03:37:16.407Z,6.10
2017-05-16T03:39:44.624Z,6.16
2017-05-16T03:42:13.575Z,5.60
2017-05-16T03:44:41.782Z,6.74
2017-05-16T03:47:10.744Z,5.72
2017-05-16T03:49:38.947Z,5.90
2017-05-16T03:52:07.907Z,6.08
2017-05-16T03:54:36.115Z,6.24
2017-05-16T03:57:05.076Z,6.60
2017-05-16T03:59:33.284Z,6.14
2017-05-16T04:02:02.236Z,6.40
2017-05-16T04:04:30.447Z,5.76
2017-05-16T04:06:59.400Z,5.60
2017-05-16T04:09:27.611Z,5.96
2017-05-16T04:11:56.564Z,6.68
2017-05-16T04:14:24.775Z,6.84
2017-05-16T04:16:53.732Z,6.54
2017-05-16T04:19:21.948Z,6.52
2017-05-16T04:21:50.895Z,5.90
2017-05-16T04:24:19.109Z,6.02
2017-05-16T04:26:48.067Z,5.58
2017-05-16T04:29:16.282Z,5.80
2017-05-16T04:31:45.243Z,6.40
2017-05-16T04:34:13.447Z,6.16
2017-05-16T04:36:42.402Z,6.60
2017-05-16T04:39:10.612Z,6.66
2017-05-16T04:41:39.620Z,5.90
2017-05-16T04:44:07.848Z,6.30
2017-05-16T04:46:36.056Z,5.70
2017-05-16T04:49:05.004Z,5.44
2017-05-16T04:51:33.272Z,5.84
2017-05-16T04:54:01.449Z,5.74
2017-05-16T04:56:29.664Z,5.94
2017-05-16T04:58:58.615Z,5.38
2017-05-16T05:01:26.827Z,5.70
2017-05-16T05:03:55.779Z,6.62
2017-05-16T05:06:23.988Z,5.40
2017-05-16T05:08:52.945Z,5.70
2017-05-16T05:11:21.156Z,5.62
2017-05-16T05:13:50.123Z,5.80
2017-05-16T05:16:18.331Z,5.98
2017-05-16T05:18:47.324Z,5.16
2017-05-16T05:21:16.277Z,5.38
2017-05-16T05:23:44.491Z,4.70
2017-05-16T05:26:13.436Z,4.12
2017-05-16T05:28:41.648Z,4.64
2017-05-16T05:31:09.856Z,5.64
2017-05-16T05:33:38.128Z,4.46
2017-05-16T05:36:06.299Z,5.06
2017-05-16T05:38:34.519Z,4.76
2017-05-16T05:41:02.731Z,5.30
2017-05-16T05:43:30.953Z,4.36
2017-05-16T05:45:59.173Z,4.78
2017-05-16T05:48:28.144Z,5.08
2017-05-16T05:50:56.359Z,4.12
2017-05-16T05:53:24.588Z,3.86
2017-05-16T05:55:52.799Z,3.74
2017-05-16T05:58:21.017Z,3.74
2017-05-16T06:00:49.240Z,4.06
2017-05-16T06:03:18.191Z,3.62
2017-05-16T06:05:46.408Z,3.86
2017-05-16T06:08:15.427Z,4.14
2017-05-16T06:10:43.671Z,3.86
2017-05-16T06:13:12.619Z,4.06
2017-05-16T06:15:40.843Z,3.58
2017-05-16T06:18:09.076Z,3.82
2017-05-16T06:20:37.364Z,4.28
2017-05-16T06:23:05.574Z,3.44
2017-05-16T06:25:33.788Z,4.12
2017-05-16T06:28:02.161Z,4.26
2017-05-16T06:30:30.364Z,3.30
2017-05-16T06:32:58.579Z,3.62
2017-05-16T06:35:26.787Z,3.60
2017-05-16T06:37:54.996Z,4.30
2017-05-16T06:40:24.037Z,3.66
2017-05-16T06:42:52.267Z,4.06
2017-05-16T06:45:21.223Z,3.36
2017-05-16T06:47:49.449Z,4.18
2017-05-16T06:50:17.668Z,3.56
2017-05-16T06:52:45.888Z,2.80
2017-05-16T06:55:14.836Z,3.14
2017-05-16T06:57:43.071Z,2.80
2017-05-16T07:00:11.292Z,3.32
2017-05-16T07:02:39.492Z,3.22
2017-05-16T07:05:08.447Z,3.00
2017-05-16T07:07:36.655Z,2.52
2017-05-16T07:10:05.613Z,2.48
2017-05-16T07:12:33.818Z,2.96
2017-05-16T07:15:02.039Z,3.16
2017-05-16T07:17:30.249Z,3.24
2017-05-16T07:19:59.200Z,3.02
2017-05-16T07:22:27.412Z,3.28
2017-05-16T07:24:56.389Z,3.20
2017-05-16T07:27:24.595Z,3.32
2017-05-16T07:29:52.815Z,3.52
2017-05-16T07:32:21.037Z,3.66
2017-05-16T07:34:49.987Z,3.78
2017-05-16T07:37:18.212Z,3.16
2017-05-16T07:39:46.430Z,3.22
2017-05-16T07:42:14.647Z,2.40
2017-05-16T07:44:43.596Z,3.00
2017-05-16T07:47:11.815Z,2.94
2017-05-16T07:49:40.790Z,2.82
2017-05-16T07:52:09.766Z,2.74
2017-05-16T07:54:37.976Z,2.60
2017-05-16T07:57:06.931Z,3.10
2017-05-16T07:59:35.139Z,2.90
2017-05-16T08:02:04.116Z,2.32
2017-05-16T08:04:33.081Z,2.48
2017-05-16T08:07:01.300Z,2.56
2017-05-16T08:09:30.257Z,2.20
2017-05-16T08:11:58.467Z,2.48
2017-05-16T08:14:27.428Z,2.84
2017-05-16T08:16:55.635Z,2.80
2017-05-16T08:19:23.857Z,2.50
2017-05-16T08:21:52.059Z,3.42
2017-05-16T08:24:21.015Z,2.90
2017-05-16T08:26:49.344Z,2.38
2017-05-16T08:29:17.571Z,2.72
2017-05-16T08:31:45.780Z,2.48
2017-05-16T08:34:14.731Z,2.68
2017-05-16T08:36:42.953Z,2.28
2017-05-16T08:39:11.900Z,2.26
2017-05-16T08:41:40.112Z,2.78
2017-05-16T08:44:09.063Z,2.14
2017-05-16T08:46:37.279Z,2.14
2017-05-16T08:49:06.226Z,2.54
2017-05-16T08:51:34.439Z,2.24
2017-05-16T08:54:03.392Z,2.56
2017-05-16T08:56:31.631Z,2.60
2017-05-16T08:58:59.844Z,1.92
2017-05-16T09:01:28.080Z,1.56
2017-05-16T09:03:56.292Z,1.60
2017-05-16T09:06:24.499Z,1.86
2017-05-16T09:08:53.460Z,1.68
2017-05-16T09:11:21.675Z,1.90
2017-05-16T09:13:50.626Z,1.90
2017-05-16T09:16:18.834Z,1.96
2017-05-16T09:18:48.587Z,1.60
2017-05-16T09:21:16.799Z,2.22
2017-05-16T09:23:45.011Z,1.94
2017-05-16T09:26:13.227Z,1.74
2017-05-16T09:28:41.456Z,1.62
2017-05-16T09:31:10.403Z,1.82
2017-05-16T09:33:38.638Z,1.60
2017-05-16T09:36:06.840Z,2.02
2017-05-16T09:38:35.054Z,1.88
2017-05-16T09:41:04.008Z,1.70
2017-05-16T09:43:32.215Z,1.74
2017-05-16T09:46:01.167Z,2.10
2017-05-16T09:48:29.382Z,1.70
2017-05-16T09:50:58.336Z,1.30
2017-05-16T09:53:26.543Z,1.70
2017-05-16T09:55:55.499Z,2.04
2017-05-16T09:58:23.714Z,1.60
2017-05-16T10:00:52.667Z,1.50
2017-05-16T10:03:20.877Z,1.58
2017-05-16T10:05:49.846Z,1.66
2017-05-16T10:08:18.055Z,1.56
2017-05-16T10:10:47.017Z,1.54
2017-05-16T10:13:15.223Z,1.60
2017-05-16T10:15:43.444Z,1.68
2017-05-16T10:18:11.656Z,1.90
2017-05-16T10:20:40.608Z,1.46
2017-05-16T10:23:08.828Z,1.74
2017-05-16T10:25:37.788Z,2.18
2017-05-16T10:28:06.003Z,1.70
2017-05-16T10:30:34.220Z,2.06
2017-05-16T10:33:02.444Z,1.42
2017-05-16T10:37:58.852Z,1.70
2017-05-16T10:40:27.096Z,1.78
2017-05-16T10:42:56.051Z,1.82
2017-05-16T10:45:24.259Z,2.00
2017-05-16T10:47:53.211Z,1.88
2017-05-16T10:50:21.424Z,1.90
2017-05-16T10:52:50.371Z,1.90
2017-05-16T10:55:18.590Z,2.10
2017-05-16T10:57:47.535Z,2.34
2017-05-16T11:00:15.752Z,2.20
2017-05-16T11:02:44.695Z,1.96
2017-05-16T11:05:12.907Z,1.58
2017-05-16T11:07:41.863Z,1.96
2017-05-16T11:10:10.075Z,1.76
2017-05-16T11:12:39.031Z,2.02
2017-05-16T11:15:07.260Z,1.76
2017-05-16T11:17:35.474Z,2.18
2017-05-16T11:20:03.685Z,1.60
2017-05-16T11:22:32.643Z,1.42
2017-05-16T11:25:00.860Z,1.90
2017-05-16T11:27:29.092Z,1.56
2017-05-16T11:29:57.301Z,1.56
2017-05-16T11:32:26.256Z,1.98
2017-05-16T11:34:54.463Z,1.96
2017-05-16T11:37:23.443Z,1.40
2017-05-16T11:39:51.650Z,1.60
2017-05-16T11:42:19.867Z,1.70
2017-05-16T11:44:48.076Z,1.60
2017-05-16T11:47:17.035Z,1.42
2017-05-16T11:49:45.245Z,1.70
2017-05-16T11:52:14.291Z,1.92
2017-05-16T11:54:42.509Z,1.70
2017-05-16T11:57:10.753Z,1.80
2017-05-16T11:59:38.935Z,1.78
2017-05-16T12:02:07.143Z,1.82
2017-05-16T12:04:36.099Z,1.60
2017-05-16T12:07:04.315Z,1.20
2017-05-16T12:09:32.543Z,1.48
2017-05-16T12:12:00.764Z,1.56
2017-05-16T12:14:28.975Z,1.90
2017-05-16T12:16:58.322Z,1.56
2017-05-16T12:19:26.545Z,1.88
2017-05-16T12:21:54.767Z,1.58
2017-05-16T12:24:22.995Z,1.48
2017-05-16T12:26:51.215Z,1.70
2017-05-16T12:29:19.423Z,1.94
2017-05-16T12:31:48.384Z,1.98
2017-05-16T12:34:16.592Z,1.94
2017-05-16T12:36:45.551Z,1.50
2017-05-16T12:39:13.767Z,1.70
2017-05-16T12:41:42.742Z,1.96
2017-05-16T12:44:10.953Z,1.62
2017-05-16T12:46:39.172Z,1.76
2017-05-16T12:49:07.378Z,1.42
2017-05-16T12:51:36.343Z,1.40
2017-05-16T12:54:04.553Z,1.60
2017-05-16T12:56:32.771Z,1.70
2017-05-16T12:59:00.987Z,1.82
2017-05-16T13:01:29.940Z,2.00
2017-05-16T13:03:58.161Z,2.00
2017-05-16T13:06:27.107Z,1.86
2017-05-16T13:08:55.327Z,2.00
2017-05-16T13:11:24.273Z,1.96
2017-05-16T13:13:52.897Z,1.54
2017-05-16T13:16:21.846Z,1.70
2017-05-16T13:18:50.064Z,1.80
2017-05-16T13:21:19.011Z,1.86
2017-05-16T13:23:47.239Z,2.02
2017-05-16T13:26:15.455Z,1.86
2017-05-16T13:28:43.679Z,2.12
2017-05-16T13:31:12.634Z,2.20
2017-05-16T13:33:40.852Z,1.62
2017-05-16T13:36:09.067Z,1.80
2017-05-16T13:38:37.279Z,1.46
2017-05-16T13:41:06.235Z,2.04
2017-05-16T13:43:34.450Z,1.50
2017-05-16T13:46:02.663Z,1.92
2017-05-16T13:48:30.871Z,2.04
2017-05-16T13:50:59.087Z,1.66
2017-05-16T13:53:27.299Z,1.58
2017-05-16T13:55:56.256Z,1.80
2017-05-16T13:58:24.464Z,1.92
2017-05-16T14:00:53.444Z,1.40
2017-05-16T14:03:21.649Z,1.58
2017-05-16T14:05:50.600Z,1.96
2017-05-16T14:08:18.811Z,1.96
2017-05-16T14:10:47.037Z,1.80
2017-05-16T14:13:15.247Z,1.86
2017-05-16T14:15:44.195Z,1.82
2017-05-16T14:18:12.420Z,1.78
2017-05-16T14:20:41.378Z,1.92
2017-05-16T14:23:09.591Z,1.82
2017-05-16T14:25:37.801Z,1.70
2017-05-16T14:28:06.019Z,2.08
2017-05-16T14:30:34.975Z,2.20
2017-05-16T14:33:03.188Z,1.80
2017-05-16T14:35:32.144Z,1.80
2017-05-16T14:38:00.357Z,1.70
2017-05-16T14:40:29.307Z,1.96
2017-05-16T14:42:57.516Z,1.90
2017-05-16T14:45:26.471Z,1.64
2017-05-16T14:47:54.684Z,1.62
2017-05-16T14:50:23.636Z,2.04
2017-05-16T14:52:51.855Z,2.02
2017-05-16T14:55:20.810Z,1.72
2017-05-16T14:57:49.059Z,1.86
2017-05-16T15:00:17.979Z,1.68
2017-05-16T15:02:46.188Z,1.90
2017-05-16T15:05:15.139Z,1.90
2017-05-16T15:07:43.339Z,2.00
2017-05-16T15:10:12.304Z,2.28
2017-05-16T15:12:40.507Z,2.24
2017-05-16T15:15:09.463Z,2.30
2017-05-16T15:17:37.672Z,1.96
2017-05-16T15:20:06.627Z,2.10
2017-05-16T15:22:34.849Z,2.00
2017-05-16T15:25:03.832Z,1.92
2017-05-16T15:27:32.792Z,1.58
2017-05-16T15:30:01.027Z,2.32
2017-05-16T15:32:29.256Z,2.00
2017-05-16T15:34:57.463Z,2.18
2017-05-16T15:37:25.684Z,2.18
2017-05-16T15:39:53.892Z,2.16
2017-05-16T15:42:22.849Z,2.22
2017-05-16T15:44:51.798Z,1.90
2017-05-16T15:47:20.020Z,2.14
2017-05-16T15:49:48.972Z,2.00
2017-05-16T15:52:17.189Z,1.78
2017-05-16T15:54:46.136Z,2.40
2017-05-16T15:57:14.351Z,2.50
2017-05-16T15:59:43.299Z,2.20
2017-05-16T16:02:11.517Z,2.14
2017-05-16T16:04:40.464Z,1.94
2017-05-16T16:07:08.690Z,2.26
2017-05-16T16:09:36.908Z,2.68
2017-05-16T16:12:05.119Z,2.16
2017-05-16T16:14:34.077Z,2.46
2017-05-16T16:17:02.284Z,2.66
2017-05-16T16:19:31.244Z,2.40
2017-05-16T16:21:59.450Z,1.96
2017-05-16T16:24:28.407Z,2.04
2017-05-16T16:26:56.615Z,2.22
2017-05-16T16:29:25.572Z,2.20
2017-05-16T16:31:53.780Z,2.30
2017-05-16T16:34:22.748Z,1.90
2017-05-16T16:36:50.956Z,2.22
2017-05-16T16:39:19.904Z,1.94
2017-05-16T16:41:48.113Z,2.36
2017-05-16T16:44:17.063Z,1.96
2017-05-16T16:46:45.281Z,2.00
2017-05-16T16:49:14.227Z,2.12
2017-05-16T16:51:42.439Z,2.10
2017-05-16T16:54:11.396Z,2.30
2017-05-16T16:56:39.606Z,2.58
2017-05-16T16:59:08.559Z,2.22
2017-05-16T17:01:36.780Z,2.10
2017-05-16T17:04:05.727Z,2.12
2017-05-16T17:06:33.959Z,2.68
2017-05-16T17:09:02.175Z,2.30
2017-05-16T17:11:30.384Z,1.88
2017-05-16T17:13:59.339Z,2.46
2017-05-16T17:16:27.548Z,2.14
2017-05-16T17:18:56.503Z,1.90
2017-05-16T17:21:24.713Z,2.04
2017-05-16T17:23:53.668Z,2.34
2017-05-16T17:26:21.880Z,2.54
2017-05-16T17:28:50.843Z,2.30
2017-05-16T17:31:19.048Z,2.34
2017-05-16T17:33:48.001Z,1.92
2017-05-16T17:36:16.212Z,4.72
2017-05-16T17:38:45.896Z,4.78
2017-05-16T17:41:14.098Z,9.50
2017-05-16T17:43:43.059Z,2.66
2017-05-16T17:46:11.268Z,4.38
2017-05-16T17:48:40.227Z,2.80
2017-05-16T17:51:08.436Z,2.38
2017-05-16T17:53:37.384Z,2.42
2017-05-16T17:56:05.595Z,2.54
2017-05-16T17:58:34.549Z,2.10
2017-05-16T18:01:02.775Z,2.24
2017-05-16T18:03:30.983Z,2.30
2017-05-16T18:05:59.203Z,2.90
2017-05-16T18:08:27.411Z,2.02
2017-05-16T18:10:56.368Z,2.42
2017-05-16T18:13:24.584Z,2.20
2017-05-16T18:15:53.558Z,3.04
2017-05-16T18:18:21.767Z,2.50
2017-05-16T18:20:50.008Z,2.54
2017-05-16T18:23:18.215Z,2.52
2017-05-16T18:25:46.432Z,2.74
2017-05-16T18:28:14.642Z,2.88
2017-05-16T18:30:43.595Z,3.00
2017-05-16T18:33:11.815Z,4.28
2017-05-16T18:35:40.773Z,5.06
2017-05-16T18:38:08.986Z,3.60
2017-05-16T18:40:37.939Z,3.68
2017-05-16T18:43:06.163Z,3.60
2017-05-16T18:45:34.377Z,3.00
2017-05-16T18:48:02.597Z,3.20
2017-05-16T18:50:31.555Z,3.16
2017-05-16T18:52:59.771Z,3.44
2017-05-16T18:55:27.992Z,3.90
2017-05-16T18:57:56.208Z,3.64
2017-05-16T19:00:25.155Z,3.66
2017-05-16T19:02:53.371Z,3.96
2017-05-16T19:05:22.327Z,3.36
2017-05-16T19:07:50.547Z,3.66
2017-05-16T19:10:18.768Z,3.36
2017-05-16T19:12:46.979Z,3.34
2017-05-16T19:15:15.931Z,3.24
2017-05-16T19:17:44.165Z,3.62
2017-05-16T19:20:12.385Z,4.26
2017-05-16T19:22:40.591Z,3.48
2017-05-16T19:25:09.560Z,3.08
2017-05-16T19:27:37.772Z,3.14
2017-05-16T19:30:06.732Z,2.76
2017-05-16T19:32:34.946Z,3.38
2017-05-16T19:35:03.170Z,4.22
2017-05-16T19:37:32.123Z,3.50
2017-05-16T19:40:00.339Z,3.30
2017-05-16T19:42:29.287Z,3.32
2017-05-16T19:44:57.516Z,4.18
2017-05-16T19:47:25.735Z,3.48
2017-05-16T19:49:53.943Z,3.60
2017-05-16T19:52:22.904Z,3.80
2017-05-16T19:54:51.116Z,3.98
2017-05-16T19:57:20.068Z,3.98
2017-05-16T19:59:48.284Z,3.88
2017-05-16T20:02:17.255Z,3.68
2017-05-16T20:04:45.468Z,3.32
2017-05-16T20:07:13.683Z,3.34
2017-05-16T20:09:41.892Z,3.52
2017-05-16T20:12:10.848Z,3.28
2017-05-16T20:14:39.054Z,3.38
2017-05-16T20:17:08.009Z,3.52
2017-05-16T20:19:36.223Z,3.66
2017-05-16T20:22:05.175Z,3.52
2017-05-16T20:24:33.388Z,3.10
2017-05-16T20:27:02.343Z,3.10
2017-05-16T20:29:30.564Z,3.10
2017-05-16T20:31:59.520Z,3.40
2017-05-16T20:34:27.740Z,3.88
2017-05-16T20:36:55.956Z,3.74
2017-05-16T20:39:24.187Z,3.70
2017-05-16T20:41:52.407Z,2.94
2017-05-16T20:44:20.615Z,3.34
2017-05-16T20:46:49.569Z,3.26
2017-05-16T20:49:17.781Z,3.20
2017-05-16T20:51:46.741Z,3.70
2017-05-16T20:54:14.941Z,3.96
2017-05-16T20:56:43.900Z,3.46
2017-05-16T20:59:12.107Z,3.62
2017-05-16T21:01:41.066Z,3.92
2017-05-16T21:04:09.271Z,3.36
2017-05-16T21:06:38.230Z,3.44
2017-05-16T21:09:06.440Z,3.48
2017-05-16T21:11:35.406Z,3.54
2017-05-16T21:14:03.611Z,3.64
2017-05-16T21:16:32.650Z,3.56
2017-05-16T21:19:00.899Z,4.00
2017-05-16T21:21:29.113Z,3.42
2017-05-16T21:23:57.329Z,3.70
2017-05-16T21:26:26.275Z,3.48
2017-05-16T21:28:54.483Z,3.66
2017-05-16T21:31:23.445Z,3.68
2017-05-16T21:33:51.667Z,3.50
2017-05-16T21:36:20.607Z,4.98
2017-05-16T21:38:48.834Z,5.12
2017-05-16T21:41:17.783Z,4.60
2017-05-16T21:43:46.007Z,4.22
2017-05-16T21:46:14.219Z,4.48
2017-05-16T21:48:42.440Z,3.60
2017-05-16T21:51:11.387Z,3.98
2017-05-16T21:53:39.602Z,4.00
2017-05-16T21:56:08.555Z,3.96
2017-05-16T21:58:36.768Z,3.82
2017-05-16T22:01:05.734Z,3.44
2017-05-16T22:03:33.953Z,3.46
2017-05-16T22:06:02.182Z,4.04
2017-05-16T22:08:30.609Z,3.66
2017-05-16T22:10:58.823Z,3.68
2017-05-16T22:13:27.776Z,3.88
2017-05-16T22:15:55.995Z,4.34
2017-05-16T22:18:24.943Z,3.76
2017-05-16T22:20:56.296Z,3.76
2017-05-16T22:23:25.256Z,3.78
2017-05-16T22:25:53.474Z,4.08
2017-05-16T22:28:22.451Z,3.86
2017-05-16T22:30:51.408Z,4.38
2017-05-16T22:33:19.615Z,3.98
2017-05-16T22:35:47.824Z,3.90
2017-05-16T22:38:16.034Z,4.04
2017-05-16T22:40:44.243Z,4.54
2017-05-16T22:43:13.207Z,3.94
2017-05-16T22:45:41.415Z,4.10
2017-05-16T22:48:10.385Z,3.86
2017-05-16T22:50:38.587Z,4.36
2017-05-16T22:53:07.539Z,3.60
2017-05-16T22:55:35.751Z,4.26
2017-05-16T22:58:03.976Z,3.90
2017-05-16T23:00:32.187Z,4.48
2017-05-16T23:03:00.395Z,4.32
2017-05-16T23:05:28.618Z,4.08
2017-05-16T23:07:56.822Z,4.20
2017-05-16T23:10:25.775Z,3.96
2017-05-16T23:12:53.982Z,4.10
2017-05-16T23:15:22.939Z,4.68
2017-05-16T23:17:51.146Z,4.44
2017-05-16T23:20:20.115Z,4.72
2017-05-16T23:22:48.320Z,4.62
2017-05-16T23:25:16.547Z,4.80
2017-05-16T23:27:44.760Z,4.74
2017-05-16T23:30:13.727Z,4.44
2017-05-16T23:32:41.932Z,4.98
2017-05-16T23:35:15.779Z,4.50
2017-05-16T23:37:44.024Z,4.72
2017-05-16T23:40:12.235Z,4.98
2017-05-16T23:42:40.447Z,4.40
2017-05-16T23:45:08.656Z,4.82
2017-05-16T23:47:36.872Z,4.40
2017-05-16T23:50:05.083Z,4.68
2017-05-16T23:52:33.287Z,4.96
2017-05-16T23:55:01.501Z,5.06
2017-05-16T23:57:30.451Z,4.82
2017-05-16T23:59:58.666Z,5.20
